Список аэропортов
Фактическая погода:

15 августа, 23:30
Температура: +21°C (+21.0*)
Ветер: сев.-западный 3 м/с
Давление: *760 мм
неб. 900 м
неб. облачность
1200 м
облачно
2400 м
дождь
Время (МСК)Темп. СВетерВлажностьДавлениеОблачностьОсадки
21:00+28С, 1 м/с59%1013 гПаоблачнодождь
22:00+27С, 3 м/с60%1013 гПаоблачно
23:00+26С, 3 м/с61%1014 гПамалооблачно
16 августа
00:00+25С, 3 м/с60%1014 гПамалооблачно
01:00+25С, 3 м/с60%1014 гПас прояснениями
02:00+24С, 3 м/с59%1013 гПас прояснениями
03:00+24С, 3 м/с60%1013 гПаоблачно
04:00+24С, 2 м/с60%1013 гПаоблачно
05:00+24С, 3 м/с59%1013 гПаоблачно
06:00+24С, 3 м/с58%1013 гПас прояснениями
07:00+24С, 3 м/с58%1013 гПаоблачно
08:00+25С, 2 м/с57%1013 гПаоблачно
09:00+27С, 2 м/с49%1013 гПаоблачно
10:00+28С, 1 м/с48%1012 гПаоблачно
11:00+30Ю, 1 м/с44%1013 гПаоблачно
12:00+30Ю, 3 м/с42%1013 гПаоблачно
13:00+31ЮВ, 4 м/с40%1013 гПас прояснениями
14:00+32ЮВ, 4 м/с38%1013 гПаоблачно
15:00+32ЮВ, 3 м/с38%1012 гПаоблачно
16:00+30ЮВ, 3 м/с44%1013 гПаоблачнодождь
17:00+30ЮВ, 2 м/с46%1012 гПаоблачнодождь
18:00+29Ю, 3 м/с52%1012 гПаоблачнодождь
19:00+29ЮЗ, 2 м/с60%1012 гПас прояснениямидождь
20:00+28С, 1 м/с59%1012 гПаоблачнодождь
21:00+26СВ, 2 м/с70%1013 гПас прояснениямидождь
22:00+25СВ, 1 м/с77%1013 гПаоблачнодождь
23:00+24СВ, 1 м/с82%1014 гПаясно
17 августа
00:00+24С, 2 м/с83%1014 гПамалооблачно
01:00+23С, 2 м/с83%1014 гПамалооблачно
02:00+23С, 2 м/с80%1014 гПас прояснениями
03:00+22С, 2 м/с78%1014 гПаясно
04:00+22С, 2 м/с78%1014 гПас прояснениями
05:00+21С, 2 м/с79%1014 гПас прояснениями
06:00+21СЗ, 2 м/с79%1014 гПаоблачно
07:00+21СЗ, 1 м/с79%1014 гПамалооблачно
08:00+22С, 1 м/с75%1014 гПамалооблачно
09:00+24СЗ, 1 м/с66%1014 гПас прояснениями
10:00+26Штиль 62%1014 гПас прояснениями
11:00+28ЮЗ, 1 м/с56%1014 гПас прояснениями
12:00+29Ю, 1 м/с50%1014 гПаоблачно
13:00+30Ю, 2 м/с48%1014 гПаоблачно
14:00+31Ю, 2 м/с45%1014 гПаоблачно
15:00+32Ю, 3 м/с42%1013 гПаоблачно
16:00+32Ю, 3 м/с38%1013 гПаясно
17:00+32Ю, 4 м/с40%1013 гПамалооблачно
18:00+31ЮЗ, 4 м/с41%1013 гПамалооблачно
19:00+31ЮЗ, 3 м/с40%1013 гПамалооблачно
20:00+29ЮЗ, 2 м/с45%1013 гПаясно
21:00+27Ю, 1 м/с54%1014 гПаясно